createdAt,value
2023-02-25T00:01:38.950Z,88.60
2023-02-25T00:04:05.816Z,88.23
2023-02-25T00:06:32.686Z,88.85
2023-02-25T00:08:59.566Z,88.14
2023-02-25T00:11:26.698Z,87.34
2023-02-25T00:13:53.783Z,87.63
2023-02-25T00:16:22.390Z,88.08
2023-02-25T00:18:56.923Z,88.31
2023-02-25T00:21:24.267Z,87.51
2023-02-25T00:23:51.810Z,88.92
2023-02-25T00:26:19.166Z,89.25
2023-02-25T00:28:46.395Z,88.06
2023-02-25T00:31:20.903Z,87.66
2023-02-25T00:33:48.708Z,86.99
2023-02-25T00:36:21.315Z,87.47
2023-02-25T00:38:52.898Z,87.21
2023-02-25T00:41:22.669Z,86.87
2023-02-25T00:43:52.672Z,86.80
2023-02-25T00:46:21.288Z,86.42
2023-02-25T00:48:48.905Z,87.27
2023-02-25T00:51:18.155Z,86.98
2023-02-25T00:53:45.519Z,87.01
2023-02-25T00:56:15.785Z,86.76
2023-02-25T00:58:44.292Z,86.82
2023-02-25T01:01:31.870Z,85.97
2023-02-25T01:03:59.259Z,86.68
2023-02-25T01:06:28.379Z,87.39
2023-02-25T01:08:55.424Z,87.95
2023-02-25T01:11:27.854Z,88.75
2023-02-25T01:13:56.760Z,89.07
2023-02-25T01:16:25.672Z,88.30
2023-02-25T01:18:54.695Z,87.67
2023-02-25T01:21:25.963Z,87.34
2023-02-25T01:23:58.887Z,87.59
2023-02-25T01:26:27.401Z,87.97
2023-02-25T01:28:54.368Z,88.14
2023-02-25T01:31:29.628Z,88.93
2023-02-25T01:34:01.484Z,87.42
2023-02-25T01:36:30.443Z,87.30
2023-02-25T01:38:57.433Z,87.28
2023-02-25T01:41:25.537Z,87.27
2023-02-25T01:44:34.611Z,87.46
2023-02-25T01:47:01.638Z,88.42
2023-02-25T01:49:44.445Z,87.63
2023-02-25T01:52:16.127Z,86.97
2023-02-25T01:54:45.326Z,87.22
2023-02-25T01:57:13.855Z,87.45
2023-02-25T01:59:42.516Z,87.17
2023-02-25T02:02:10.288Z,87.42
2023-02-25T02:04:38.434Z,86.42
2023-02-25T02:07:06.378Z,86.60
2023-02-25T02:09:33.764Z,86.78
2023-02-25T02:12:02.769Z,86.12
2023-02-25T02:14:34.809Z,86.35
2023-02-25T02:17:14.161Z,86.28
2023-02-25T02:20:07.378Z,85.91
2023-02-25T02:22:43.241Z,86.40
2023-02-25T02:25:46.670Z,86.63
2023-02-25T02:28:51.237Z,85.88
2023-02-25T02:31:33.939Z,85.98
2023-02-25T02:34:36.169Z,85.79
2023-02-25T02:37:30.443Z,85.74
2023-02-25T02:40:19.778Z,85.93
2023-02-25T02:42:55.633Z,86.25
2023-02-25T02:45:44.286Z,86.50
2023-02-25T02:48:17.989Z,86.60
2023-02-25T02:50:51.610Z,86.31
2023-02-25T02:53:50.289Z,85.98
2023-02-25T02:56:19.142Z,86.37
2023-02-25T02:58:53.741Z,86.59
2023-02-25T03:01:28.305Z,87.35
2023-02-25T03:04:00.049Z,87.40
2023-02-25T03:06:33.952Z,87.17
2023-02-25T03:09:15.704Z,86.32
2023-02-25T03:11:42.633Z,86.29
2023-02-25T03:14:10.995Z,86.39
2023-02-25T03:17:10.097Z,86.03
2023-02-25T03:19:49.283Z,86.29
2023-02-25T03:22:20.329Z,86.81
2023-02-25T03:25:00.428Z,86.73
2023-02-25T03:27:34.680Z,86.31
2023-02-25T03:30:13.237Z,86.46
2023-02-25T03:32:42.152Z,86.38
2023-02-25T03:35:11.256Z,86.75
2023-02-25T03:37:40.577Z,86.92
2023-02-25T03:40:13.639Z,86.76
2023-02-25T03:42:53.641Z,86.78
2023-02-25T03:45:21.839Z,85.72
2023-02-25T03:47:49.141Z,86.07
2023-02-25T03:50:24.383Z,86.80
2023-02-25T03:52:51.342Z,86.81
2023-02-25T03:55:18.975Z,86.73
2023-02-25T03:57:49.256Z,86.96
2023-02-25T04:00:19.258Z,87.11
2023-02-25T04:02:47.637Z,87.62
2023-02-25T04:05:16.216Z,88.37
2023-02-25T04:07:43.345Z,88.17
2023-02-25T04:10:13.658Z,87.88
2023-02-25T04:12:40.597Z,88.79
2023-02-25T04:15:08.657Z,88.42
2023-02-25T04:17:35.952Z,88.69
2023-02-25T04:20:04.856Z,89.04
2023-02-25T04:22:31.753Z,90.20
2023-02-25T04:24:58.603Z,90.31
2023-02-25T04:27:26.570Z,89.67
2023-02-25T04:29:53.327Z,90.32
2023-02-25T04:32:20.336Z,89.09
2023-02-25T04:34:47.297Z,90.05
2023-02-25T04:37:14.168Z,90.35
2023-02-25T04:39:41.680Z,90.02
2023-02-25T04:42:08.798Z,87.91
2023-02-25T04:44:36.151Z,88.43
2023-02-25T04:47:03.214Z,89.25
2023-02-25T04:49:30.071Z,86.92
2023-02-25T04:51:57.043Z,85.59
2023-02-25T04:54:23.896Z,84.18
2023-02-25T04:56:50.561Z,85.36
2023-02-25T04:59:17.548Z,84.65
2023-02-25T05:01:44.480Z,82.65
2023-02-25T05:04:11.418Z,82.86
2023-02-25T05:06:39.378Z,81.93
2023-02-25T05:09:06.693Z,81.33
2023-02-25T05:11:34.545Z,80.34
2023-02-25T05:14:01.790Z,79.91
2023-02-25T05:16:28.737Z,81.11
2023-02-25T05:18:55.674Z,81.48
2023-02-25T05:21:24.947Z,81.20
2023-02-25T05:23:53.483Z,77.67
2023-02-25T05:26:22.838Z,78.65
2023-02-25T05:28:51.590Z,77.31
2023-02-25T05:31:19.061Z,76.66
2023-02-25T05:33:46.064Z,75.55
2023-02-25T05:36:15.047Z,78.33
2023-02-25T05:38:42.191Z,76.12
2023-02-25T05:41:10.154Z,77.74
2023-02-25T05:43:38.276Z,76.02
2023-02-25T05:46:09.270Z,76.63
2023-02-25T05:48:36.121Z,78.10
2023-02-25T05:51:04.319Z,77.49
2023-02-25T05:53:31.635Z,78.64
2023-02-25T05:55:58.521Z,78.86
2023-02-25T05:58:25.858Z,81.36
2023-02-25T06:00:54.146Z,80.50
2023-02-25T06:03:21.080Z,79.78
2023-02-25T06:05:48.138Z,79.01
2023-02-25T06:08:15.091Z,80.70
2023-02-25T06:10:41.987Z,79.86
2023-02-25T06:13:09.906Z,80.19
2023-02-25T06:15:41.409Z,80.18
2023-02-25T06:18:08.815Z,80.28
2023-02-25T06:20:35.850Z,79.04
2023-02-25T06:23:03.859Z,77.57
2023-02-25T06:25:31.182Z,80.61
2023-02-25T06:28:01.484Z,81.12
2023-02-25T06:30:30.069Z,82.51
2023-02-25T06:32:57.714Z,83.52
2023-02-25T06:35:25.051Z,84.33
2023-02-25T06:37:59.968Z,86.09
2023-02-25T06:40:28.779Z,86.77
2023-02-25T06:42:55.731Z,87.80
2023-02-25T06:45:24.165Z,86.54
2023-02-25T06:47:51.058Z,90.20
2023-02-25T06:50:18.104Z,86.37
2023-02-25T06:52:44.967Z,86.23
2023-02-25T06:55:11.628Z,87.30
2023-02-25T06:57:38.534Z,85.95
2023-02-25T07:00:06.756Z,84.96
2023-02-25T07:02:33.718Z,85.48
2023-02-25T07:05:01.518Z,87.24
2023-02-25T07:07:29.070Z,85.90
2023-02-25T07:09:55.889Z,85.88
2023-02-25T07:12:22.833Z,87.41
2023-02-25T07:14:50.059Z,88.63
2023-02-25T07:17:16.968Z,89.79
2023-02-25T07:19:43.878Z,89.62
2023-02-25T07:22:16.161Z,88.96
2023-02-25T07:24:43.757Z,89.75
2023-02-25T07:27:10.955Z,91.45
2023-02-25T07:29:37.821Z,88.35
2023-02-25T07:32:05.072Z,89.62
2023-02-25T07:34:32.326Z,87.23
2023-02-25T07:36:59.203Z,87.18
2023-02-25T07:39:26.174Z,86.97
2023-02-25T07:41:53.007Z,84.89
2023-02-25T07:44:19.723Z,84.09
2023-02-25T07:46:46.615Z,86.21
2023-02-25T07:49:13.541Z,87.78
2023-02-25T07:51:40.413Z,89.82
2023-02-25T07:54:07.297Z,90.53
2023-02-25T07:56:34.236Z,92.43
2023-02-25T07:59:01.375Z,92.84
2023-02-25T08:01:31.793Z,93.57
2023-02-25T08:04:00.716Z,92.63
2023-02-25T08:06:28.239Z,91.88
2023-02-25T08:08:55.580Z,89.85
2023-02-25T08:11:24.383Z,91.82
2023-02-25T08:13:51.418Z,89.89
2023-02-25T08:16:20.115Z,91.88
2023-02-25T08:18:47.415Z,92.11
2023-02-25T08:21:18.198Z,90.31
2023-02-25T08:23:45.536Z,89.73
2023-02-25T08:26:12.446Z,86.56
2023-02-25T08:28:39.795Z,88.00
2023-02-25T08:31:08.711Z,81.60
2023-02-25T08:33:35.662Z,77.72
2023-02-25T08:36:11.178Z,72.98
2023-02-25T08:38:38.759Z,72.34
2023-02-25T08:41:06.577Z,72.38
2023-02-25T08:43:33.490Z,72.94
2023-02-25T08:46:01.383Z,70.81
2023-02-25T08:48:28.564Z,72.00
2023-02-25T08:50:55.799Z,73.17
2023-02-25T08:53:23.336Z,70.89
2023-02-25T08:55:51.267Z,70.42
2023-02-25T08:58:18.193Z,69.90
2023-02-25T09:00:45.099Z,70.00
2023-02-25T09:03:11.978Z,70.33
2023-02-25T09:05:38.876Z,70.68
2023-02-25T09:08:05.771Z,70.37
2023-02-25T09:10:48.281Z,71.00
2023-02-25T09:13:17.397Z,69.81
2023-02-25T09:15:44.288Z,69.29
2023-02-25T09:18:11.973Z,71.06
2023-02-25T09:20:39.065Z,67.49
2023-02-25T09:23:06.080Z,67.46
2023-02-25T09:25:32.944Z,62.84
2023-02-25T09:27:59.863Z,62.22
2023-02-25T09:30:26.851Z,63.18
2023-02-25T09:32:53.955Z,63.26
2023-02-25T09:35:20.878Z,61.93
2023-02-25T09:37:47.915Z,59.41
2023-02-25T09:40:22.861Z,60.85
2023-02-25T09:43:20.315Z,62.14
2023-02-25T09:45:49.874Z,60.20
2023-02-25T09:48:26.074Z,64.01
2023-02-25T09:50:56.922Z,58.61
2023-02-25T09:53:33.197Z,60.45
2023-02-25T09:56:00.210Z,61.75
2023-02-25T09:58:32.996Z,61.97
2023-02-25T10:01:12.326Z,61.90
2023-02-25T10:03:59.313Z,62.02
2023-02-25T10:06:37.451Z,60.63
2023-02-25T10:09:19.198Z,63.19
2023-02-25T10:11:53.774Z,63.39
2023-02-25T10:14:43.187Z,61.91
2023-02-25T10:17:14.739Z,60.45
2023-02-25T10:19:41.528Z,59.19
2023-02-25T10:22:29.961Z,59.52
2023-02-25T10:25:38.149Z,59.57
2023-02-25T10:28:07.828Z,61.46
2023-02-25T10:30:49.345Z,60.39
2023-02-25T10:33:24.525Z,61.47
2023-02-25T10:36:01.436Z,60.15
2023-02-25T10:38:28.335Z,60.11
2023-02-25T10:40:56.305Z,61.30
2023-02-25T10:43:24.353Z,55.50
2023-02-25T10:46:11.291Z,54.04
2023-02-25T10:48:38.775Z,53.11
2023-02-25T10:51:15.305Z,51.54
2023-02-25T10:54:02.990Z,52.25
2023-02-25T10:56:44.144Z,54.45
2023-02-25T10:59:33.513Z,53.63
2023-02-25T11:02:01.341Z,57.05
2023-02-25T11:04:33.696Z,57.05
2023-02-25T11:07:00.576Z,56.72
2023-02-25T11:09:31.628Z,57.78
2023-02-25T11:12:08.686Z,58.13
2023-02-25T11:14:37.622Z,57.56
2023-02-25T11:17:14.744Z,56.88
2023-02-25T11:19:47.553Z,54.16
2023-02-25T11:22:29.055Z,52.21
2023-02-25T11:24:59.895Z,52.17
2023-02-25T11:27:35.635Z,51.19
2023-02-25T11:30:09.404Z,51.33
2023-02-25T11:32:41.355Z,51.69
2023-02-25T11:35:10.375Z,52.22
2023-02-25T11:37:45.496Z,53.83
2023-02-25T11:40:30.767Z,52.36
2023-02-25T11:43:01.968Z,48.75
2023-02-25T11:45:34.707Z,49.11
2023-02-25T11:48:04.435Z,50.04
2023-02-25T11:50:53.017Z,51.48
2023-02-25T11:53:38.324Z,50.19
2023-02-25T11:56:13.270Z,49.00
2023-02-25T11:59:15.382Z,48.38
2023-02-25T12:02:01.314Z,47.59
2023-02-25T12:04:44.809Z,46.33
2023-02-25T12:07:22.554Z,46.25
2023-02-25T12:09:49.375Z,46.30
2023-02-25T12:12:25.446Z,46.39
2023-02-25T12:15:15.342Z,45.16
2023-02-25T12:17:42.137Z,46.12
2023-02-25T12:20:14.646Z,44.80
2023-02-25T12:23:35.411Z,44.73
2023-02-25T12:26:49.642Z,44.46
2023-02-25T12:29:38.620Z,43.57
2023-02-25T12:32:32.920Z,43.29
2023-02-25T12:35:35.881Z,43.36
2023-02-25T12:38:16.162Z,43.91
2023-02-25T12:41:04.629Z,43.29
2023-02-25T12:43:53.152Z,42.09
2023-02-25T12:46:33.377Z,42.53
2023-02-25T12:49:19.450Z,40.07
2023-02-25T12:52:04.385Z,41.37
2023-02-25T12:54:59.146Z,42.07
2023-02-25T12:58:06.625Z,41.79
2023-02-25T13:00:56.934Z,38.69
2023-02-25T13:03:41.739Z,38.39
2023-02-25T13:06:45.849Z,39.61
2023-02-25T13:09:31.592Z,40.17
2023-02-25T13:12:28.629Z,37.57
2023-02-25T13:15:14.503Z,38.44
2023-02-25T13:18:07.227Z,39.06
2023-02-25T13:20:43.652Z,39.84
2023-02-25T13:23:41.480Z,38.35
2023-02-25T13:26:30.582Z,38.50
2023-02-25T13:29:09.543Z,38.52
2023-02-25T13:31:46.752Z,38.20
2023-02-25T13:34:25.568Z,38.84
2023-02-25T13:37:13.640Z,38.89
2023-02-25T13:39:59.491Z,39.16
2023-02-25T13:42:41.588Z,40.73
2023-02-25T13:45:31.755Z,39.84
2023-02-25T13:48:11.884Z,38.39
2023-02-25T13:50:51.452Z,38.93
2023-02-25T13:53:53.739Z,39.27
2023-02-25T13:56:44.746Z,38.44
2023-02-25T13:59:20.766Z,38.52
2023-02-25T14:01:57.077Z,38.74
2023-02-25T14:04:45.218Z,39.17
2023-02-25T14:07:53.145Z,38.04
2023-02-25T14:10:35.232Z,38.50
2023-02-25T14:13:20.255Z,37.95
2023-02-25T14:16:05.937Z,38.57
2023-02-25T14:18:35.922Z,37.75
2023-02-25T14:21:21.294Z,37.50
2023-02-25T14:23:59.342Z,38.14
2023-02-25T14:26:54.251Z,38.09
2023-02-25T14:29:38.340Z,37.71
2023-02-25T14:32:39.602Z,37.45
2023-02-25T14:35:34.573Z,38.56
2023-02-25T14:38:22.258Z,37.83
2023-02-25T14:40:54.029Z,37.38
2023-02-25T14:43:29.760Z,37.21
2023-02-25T14:46:15.597Z,36.81
2023-02-25T14:48:49.126Z,36.67
2023-02-25T14:51:32.728Z,36.55
2023-02-25T14:54:11.585Z,37.43
2023-02-25T14:57:08.227Z,35.29
2023-02-25T14:59:53.666Z,36.15
2023-02-25T15:02:37.167Z,36.87
2023-02-25T15:05:31.074Z,36.87
2023-02-25T15:08:04.063Z,36.24
2023-02-25T15:10:44.921Z,37.10
2023-02-25T15:13:43.007Z,36.97
2023-02-25T15:16:28.378Z,36.69
2023-02-25T15:19:19.749Z,36.52
2023-02-25T15:21:49.301Z,38.15
2023-02-25T15:24:28.146Z,37.95
2023-02-25T15:26:56.368Z,36.52
2023-02-25T15:29:32.648Z,36.92
2023-02-25T15:32:25.277Z,37.79
2023-02-25T15:34:56.522Z,37.78
2023-02-25T15:37:30.327Z,36.67
2023-02-25T15:40:15.185Z,37.56
2023-02-25T15:42:57.246Z,37.85
2023-02-25T15:45:27.535Z,38.35
2023-02-25T15:48:07.056Z,39.00
2023-02-25T15:50:42.890Z,39.19
2023-02-25T15:53:25.784Z,39.77
2023-02-25T15:55:54.591Z,38.91
2023-02-25T15:58:24.393Z,39.34
2023-02-25T16:00:54.483Z,39.69
2023-02-25T16:03:35.744Z,38.38
2023-02-25T16:06:07.396Z,38.51
2023-02-25T16:08:44.349Z,38.80
2023-02-25T16:11:23.086Z,39.53
2023-02-25T16:13:50.450Z,39.09
2023-02-25T16:16:17.651Z,40.43
2023-02-25T16:18:50.600Z,40.20
2023-02-25T16:21:34.205Z,40.09
2023-02-25T16:24:01.196Z,40.05
2023-02-25T16:26:44.544Z,40.56
2023-02-25T16:29:26.345Z,40.74
2023-02-25T16:32:32.642Z,41.17
2023-02-25T16:35:01.758Z,39.91
2023-02-25T16:37:41.178Z,40.51
2023-02-25T16:40:24.551Z,40.77
2023-02-25T16:42:52.273Z,39.66
2023-02-25T16:45:26.584Z,39.58
2023-02-25T16:47:57.236Z,39.66
2023-02-25T16:50:25.207Z,39.77
2023-02-25T16:52:52.143Z,39.94
2023-02-25T16:55:31.820Z,40.68
2023-02-25T16:58:14.368Z,41.11
2023-02-25T17:00:56.266Z,40.93
2023-02-25T17:03:28.579Z,40.48
2023-02-25T17:06:00.312Z,41.16
2023-02-25T17:08:27.306Z,41.33
2023-02-25T17:10:56.864Z,40.85
2023-02-25T17:13:26.881Z,41.16
2023-02-25T17:15:53.967Z,41.30
2023-02-25T17:18:24.799Z,41.79
2023-02-25T17:20:53.813Z,41.44
2023-02-25T17:23:20.776Z,42.81
2023-02-25T17:25:49.244Z,42.33
2023-02-25T17:28:22.288Z,42.03
2023-02-25T17:30:49.590Z,41.93
2023-02-25T17:33:22.234Z,41.87
2023-02-25T17:35:53.600Z,40.81
2023-02-25T17:38:22.567Z,41.12
2023-02-25T17:40:51.008Z,41.21
2023-02-25T17:43:22.024Z,41.56
2023-02-25T17:45:53.221Z,42.90
2023-02-25T17:48:26.717Z,42.26
2023-02-25T17:51:06.193Z,42.38
2023-02-25T17:53:47.581Z,41.39
2023-02-25T17:56:16.191Z,42.60
2023-02-25T17:58:45.138Z,41.99
2023-02-25T18:01:23.047Z,44.08
2023-02-25T18:03:51.206Z,41.95
2023-02-25T18:06:41.152Z,43.24
2023-02-25T18:09:45.683Z,43.93
2023-02-25T18:12:35.602Z,43.30
2023-02-25T18:15:04.733Z,43.71
2023-02-25T18:17:34.401Z,43.41
2023-02-25T18:20:03.828Z,43.26
2023-02-25T18:22:30.731Z,43.25
2023-02-25T18:25:01.313Z,42.71
2023-02-25T18:27:30.923Z,44.53
2023-02-25T18:30:00.733Z,43.94
2023-02-25T18:32:27.771Z,43.86
2023-02-25T18:34:54.693Z,43.86
2023-02-25T18:37:21.821Z,43.79
2023-02-25T18:39:48.953Z,43.67
2023-02-25T18:42:17.253Z,43.77
2023-02-25T18:44:45.764Z,44.60
2023-02-25T18:47:12.755Z,45.53
2023-02-25T18:49:39.874Z,45.51
2023-02-25T18:52:14.186Z,45.42
2023-02-25T18:54:41.730Z,45.90
2023-02-25T18:57:24.828Z,46.53
2023-02-25T18:59:52.660Z,45.21
2023-02-25T19:02:31.201Z,45.76
2023-02-25T19:04:58.402Z,46.68
2023-02-25T19:07:27.228Z,47.49
2023-02-25T19:09:55.963Z,49.52
2023-02-25T19:12:24.776Z,53.36
2023-02-25T19:14:57.821Z,57.97
2023-02-25T19:17:24.956Z,60.62
2023-02-25T19:19:51.850Z,62.32
2023-02-25T19:22:18.923Z,63.80
2023-02-25T19:24:48.107Z,66.31
2023-02-25T19:27:19.559Z,65.08
2023-02-25T19:29:50.493Z,65.30
2023-02-25T19:32:18.346Z,63.94
2023-02-25T19:34:48.913Z,63.97
2023-02-25T19:37:17.922Z,65.59
2023-02-25T19:39:44.818Z,66.48
2023-02-25T19:42:12.719Z,65.96
2023-02-25T19:44:39.586Z,66.13
2023-02-25T19:47:08.097Z,66.43
2023-02-25T19:49:35.016Z,65.55
2023-02-25T19:52:01.854Z,65.83
2023-02-25T19:54:28.573Z,64.55
2023-02-25T19:56:55.424Z,62.17
2023-02-25T19:59:22.116Z,64.21
2023-02-25T20:01:49.872Z,65.25
2023-02-25T20:04:16.942Z,61.46
2023-02-25T20:06:43.930Z,63.36
2023-02-25T20:09:10.980Z,61.94
2023-02-25T20:11:37.939Z,61.44
2023-02-25T20:14:05.651Z,62.54
2023-02-25T20:16:33.294Z,63.35
2023-02-25T20:19:00.578Z,62.71
2023-02-25T20:21:28.424Z,62.80
2023-02-25T20:23:58.380Z,64.43
2023-02-25T20:26:28.695Z,66.09
2023-02-25T20:28:56.143Z,65.86
2023-02-25T20:31:24.357Z,65.97
2023-02-25T20:33:54.029Z,65.19
2023-02-25T20:36:30.292Z,66.24
2023-02-25T20:39:15.908Z,66.61
2023-02-25T20:41:44.596Z,66.64
2023-02-25T20:44:11.961Z,66.99
2023-02-25T20:46:39.881Z,67.72
2023-02-25T20:49:08.366Z,69.18
2023-02-25T20:51:35.495Z,67.06
2023-02-25T20:54:03.910Z,66.91
2023-02-25T20:56:34.359Z,67.10
2023-02-25T20:59:01.322Z,67.46
2023-02-25T21:01:28.660Z,65.39
2023-02-25T21:03:56.008Z,66.81
2023-02-25T21:06:24.499Z,65.93
2023-02-25T21:08:52.571Z,65.64
2023-02-25T21:11:24.197Z,64.74
2023-02-25T21:13:55.005Z,66.43
2023-02-25T21:16:23.764Z,66.26
2023-02-25T21:18:51.659Z,65.17
2023-02-25T21:21:20.497Z,66.57
2023-02-25T21:23:47.634Z,65.46
2023-02-25T21:26:14.910Z,68.29
2023-02-25T21:28:41.926Z,65.56
2023-02-25T21:31:11.171Z,65.64
2023-02-25T21:33:38.990Z,68.31
2023-02-25T21:36:07.226Z,67.30
2023-02-25T21:38:34.786Z,71.24
2023-02-25T21:41:10.505Z,70.45
2023-02-25T21:43:37.884Z,71.65
2023-02-25T21:46:07.876Z,73.55
2023-02-25T21:48:35.037Z,70.51
2023-02-25T21:51:02.584Z,73.55
2023-02-25T21:53:29.503Z,74.23
2023-02-25T21:55:59.852Z,73.60
2023-02-25T21:58:28.100Z,75.62
2023-02-25T22:00:54.970Z,76.54
2023-02-25T22:03:21.902Z,77.41
2023-02-25T22:05:48.741Z,75.69
2023-02-25T22:08:15.407Z,75.01
2023-02-25T22:10:42.291Z,77.65
2023-02-25T22:13:09.170Z,78.56
2023-02-25T22:15:36.066Z,77.98
2023-02-25T22:18:03.080Z,76.64
2023-02-25T22:20:29.984Z,79.12
2023-02-25T22:22:58.177Z,78.97
2023-02-25T22:25:25.050Z,78.14
2023-02-25T22:27:52.293Z,77.52
2023-02-25T22:30:19.295Z,80.24
2023-02-25T22:32:46.206Z,79.42
2023-02-25T22:35:13.104Z,79.00
2023-02-25T22:37:40.003Z,79.01
2023-02-25T22:40:07.317Z,77.69
2023-02-25T22:42:34.382Z,79.34
2023-02-25T22:45:01.453Z,78.45
2023-02-25T22:47:28.319Z,81.13
2023-02-25T22:49:55.155Z,81.30
2023-02-25T22:52:21.809Z,82.71
2023-02-25T22:54:48.694Z,82.33
2023-02-25T22:57:16.030Z,82.28
2023-02-25T22:59:42.890Z,82.90
2023-02-25T23:02:09.743Z,83.25
2023-02-25T23:04:36.618Z,83.10
2023-02-25T23:07:03.540Z,83.96
2023-02-25T23:09:30.425Z,84.89
2023-02-25T23:11:57.443Z,83.25
2023-02-25T23:14:24.325Z,80.49
2023-02-25T23:16:51.597Z,82.80
2023-02-25T23:19:19.834Z,82.74
2023-02-25T23:21:46.703Z,83.53
2023-02-25T23:24:16.537Z,82.54
2023-02-25T23:26:44.779Z,82.27
2023-02-25T23:29:12.577Z,82.48
2023-02-25T23:31:44.253Z,81.74
2023-02-25T23:34:13.900Z,82.19
2023-02-25T23:36:42.483Z,83.60
2023-02-25T23:39:10.458Z,84.72
2023-02-25T23:41:38.624Z,84.94
2023-02-25T23:44:08.580Z,85.16
2023-02-25T23:46:36.413Z,84.09
2023-02-25T23:49:07.275Z,83.55
2023-02-25T23:51:35.179Z,84.47
2023-02-25T23:54:05.234Z,84.77
2023-02-25T23:56:32.639Z,84.50
2023-02-25T23:58:59.928Z,83.23
